.
WxDataArchive / Data Records for 2008-09-06
2008-09-05 September 2008 2008-09-07

Data Records for Saturday, 06 September 2008

Time	Temp	Chill	HIndex	Humid	Dewpt	 Wind 	HiWind	WindDir	Rain 	Barom 
-----	----	-----	------	-----	-----	------	------	-------	-----	----- 
00:00	64.8	64.8	64.8	76	57.0	0	1	315	0.00	29.897 
00:05	64.8	64.8	64.8	76	57.0	0	1	315	0.00	29.897 
00:10	64.7	64.7	64.7	77	57.3	0	0	---	0.00	29.897 
00:15	64.7	64.7	64.7	77	57.3	0	1	315	0.00	29.894 
00:20	64.5	64.5	64.5	77	57.1	0	1	315	0.00	29.894 
00:25	64.5	64.5	64.5	77	57.1	0	1	315	0.00	29.894 
00:30	64.3	64.3	64.3	77	56.9	0	1	315	0.00	29.897 
00:35	64.3	64.3	64.3	77	56.9	0	1	315	0.00	29.897 
00:40	64.2	64.2	64.2	77	56.8	0	1	315	0.00	29.897 
00:45	64.2	64.2	64.2	77	56.8	0	1	315	0.00	29.895 
00:50	64.0	64.0	64.0	77	56.6	0	1	315	0.00	29.895 
00:55	64.0	64.0	64.0	77	56.6	0	2	315	0.00	29.895 
01:00	63.9	63.9	63.9	77	56.5	0	1	315	0.00	29.895 
01:05	63.7	63.7	63.7	77	56.3	0	1	315	0.00	29.895 
01:10	63.7	63.7	63.7	77	56.3	0	1	315	0.00	29.895 
01:15	63.5	63.5	63.5	77	56.2	0	1	315	0.00	29.897 
01:20	63.5	63.5	63.5	77	56.2	0	1	315	0.00	29.897 
01:25	63.5	63.5	63.5	77	56.2	0	0	---	0.00	29.897 
01:30	63.4	63.4	63.4	77	56.1	0	0	---	0.00	29.885 
01:35	63.2	63.2	63.2	78	56.2	0	0	---	0.00	29.885 
01:40	63.1	63.1	63.1	78	56.1	0	1	315	0.00	29.885 
01:45	62.7	62.7	62.7	79	56.1	0	0	---	0.00	29.884 
01:50	62.6	62.6	62.6	79	56.0	0	0	---	0.00	29.884 
01:55	62.4	62.4	62.4	80	56.1	0	1	315	0.00	29.884 
02:00	62.1	62.1	62.1	80	55.9	0	0	---	0.00	29.882 
02:05	62.0	62.0	62.0	81	56.1	0	0	---	0.00	29.882 
02:10	61.6	61.6	61.6	81	55.7	0	0	---	0.00	29.882 
02:15	61.5	61.5	61.5	82	55.9	0	0	---	0.00	29.881 
02:20	61.3	61.3	61.3	82	55.8	0	0	---	0.00	29.881 
02:25	61.3	61.3	61.3	83	56.1	0	1	315	0.00	29.881 
02:30	61.3	61.3	61.3	83	56.1	0	0	---	0.00	29.882 
02:35	61.3	61.3	61.3	83	56.1	0	0	---	0.00	29.882 
02:40	61.5	61.5	61.5	84	56.6	0	0	---	0.00	29.882 
02:45	61.5	61.5	61.5	84	56.6	0	0	---	0.00	29.881 
02:50	61.6	61.6	61.6	84	56.7	0	1	315	0.00	29.881 
02:55	61.6	61.6	61.6	83	56.4	0	1	315	0.00	29.881 
03:00	61.6	61.6	61.6	83	56.4	0	1	315	0.00	29.887 
03:05	61.6	61.6	61.6	83	56.4	0	1	315	0.00	29.887 
03:10	61.6	61.6	61.6	83	56.4	0	0	---	0.00	29.887 
03:15	61.6	61.6	61.6	83	56.4	0	0	---	0.00	29.884 
03:20	61.6	61.6	61.6	83	56.4	0	1	315	0.00	29.884 
03:25	61.6	61.6	61.6	83	56.4	0	1	315	0.00	29.884 
03:30	61.5	61.5	61.5	83	56.3	0	1	315	0.00	29.889 
03:35	61.3	61.3	61.3	84	56.4	0	0	---	0.00	29.889 
03:40	61.3	61.3	61.3	84	56.4	0	1	315	0.00	29.889 
03:45	61.2	61.2	61.2	84	56.3	0	0	---	0.00	29.889 
03:50	60.9	60.9	60.9	84	56.0	0	0	---	0.00	29.889 
03:55	60.7	60.7	60.7	85	56.2	0	0	---	0.00	29.889 
04:00	60.5	60.5	60.5	85	56.0	0	0	---	0.00	29.887 
04:05	60.4	60.4	60.4	86	56.2	0	0	---	0.00	29.887 
04:10	60.2	60.2	60.2	86	56.0	0	0	---	0.00	29.887 
04:15	60.1	60.1	60.1	87	56.2	0	0	---	0.00	29.893 
04:20	59.9	59.9	59.9	87	56.0	0	0	---	0.00	29.893 
04:25	59.9	59.9	59.9	87	56.0	0	0	---	0.00	29.893 
04:30	59.9	59.9	59.9	87	56.0	0	0	---	0.00	29.894 
04:35	59.9	59.9	59.9	87	56.0	0	0	---	0.00	29.894 
04:40	59.9	59.9	59.9	87	56.0	0	0	---	0.00	29.894 
04:45	59.9	59.9	59.9	87	56.0	0	0	---	0.00	29.892 
04:50	59.9	59.9	59.9	87	56.0	0	0	---	0.00	29.892 
04:55	59.9	59.9	59.9	87	56.0	0	0	---	0.00	29.892 
05:00	59.9	59.9	59.9	87	56.0	0	0	---	0.00	29.891 
05:05	59.9	59.9	59.9	87	56.0	0	0	---	0.00	29.891 
05:10	59.9	59.9	59.9	88	56.3	0	0	---	0.00	29.891 
05:15	59.9	59.9	59.9	88	56.3	0	0	---	0.00	29.893 
05:20	59.8	59.8	59.8	88	56.2	0	0	---	0.00	29.893 
05:25	59.8	59.8	59.8	88	56.2	0	0	---	0.00	29.893 
05:30	59.8	59.8	59.8	88	56.2	0	0	---	0.00	29.896 
05:35	59.9	59.9	59.9	88	56.3	0	0	---	0.00	29.896 
05:40	59.9	59.9	59.9	88	56.3	0	0	---	0.00	29.896 
05:45	59.8	59.8	59.8	88	56.2	0	0	---	0.00	29.888 
05:50	59.6	59.6	59.6	88	56.0	0	0	---	0.00	29.888 
05:55	59.5	59.5	59.5	89	56.3	0	0	---	0.00	29.888 
06:00	59.5	59.5	59.5	89	56.3	0	0	---	0.00	29.896 
06:05	59.3	59.3	59.3	89	56.1	0	0	---	0.00	29.896 
06:10	59.2	59.2	59.2	89	56.0	0	0	---	0.00	29.896 
06:15	59.0	59.0	59.0	89	55.8	0	0	---	0.00	29.901 
06:20	58.9	58.9	58.9	90	56.0	0	0	---	0.00	29.901 
06:25	58.9	58.9	58.9	90	56.0	0	0	---	0.00	29.901 
06:30	58.9	58.9	58.9	91	56.3	0	0	---	0.00	29.909 
06:35	59.0	59.0	59.0	91	56.4	0	0	---	0.00	29.909 
06:40	59.2	59.2	59.2	91	56.6	0	0	---	0.00	29.909 
06:45	59.3	59.3	59.3	91	56.7	0	0	---	0.00	29.911 
06:50	59.3	59.3	59.3	91	56.7	0	1	315	0.00	29.911 
06:55	59.3	59.3	59.3	91	56.7	0	0	---	0.00	29.911 
07:00	59.5	59.5	59.5	91	56.9	0	1	315	0.00	29.912 
07:05	59.6	59.6	59.6	91	57.0	0	0	---	0.00	29.912 
07:10	59.8	59.8	59.8	91	57.2	0	0	---	0.00	29.912 
07:15	60.2	60.2	60.2	90	57.3	0	1	315	0.00	29.913 
07:20	60.5	60.5	60.5	89	57.2	0	1	315	0.00	29.913 
07:25	60.9	60.9	60.9	89	57.6	0	1	315	0.00	29.913 
07:30	61.2	61.2	61.2	88	57.6	0	1	315	0.00	29.918 
07:35	61.5	61.5	61.5	87	57.6	0	1	315	0.00	29.918 
07:40	61.8	61.8	61.8	86	57.6	0	3	315	0.00	29.918 
07:45	62.0	62.0	62.0	85	57.4	0	3	315	0.00	29.919 
07:50	62.1	62.1	62.1	84	57.2	0	2	338	0.00	29.919 
07:55	62.3	62.3	62.3	84	57.4	0	1	338	0.00	29.919 
08:00	62.4	62.4	62.4	84	57.5	0	0	---	0.00	29.918 
08:05	62.6	62.6	62.6	84	57.7	0	1	338	0.00	29.918 
08:10	63.1	63.1	63.1	83	57.8	0	1	338	0.00	29.918 
08:15	63.2	63.2	63.2	82	57.6	0	2	338	0.00	29.915 
08:20	63.5	63.5	63.5	81	57.6	0	3	338	0.00	29.915 
08:25	63.7	63.7	63.7	79	57.1	0	2	338	0.00	29.915 
08:30	64.0	64.0	64.0	78	57.0	0	2	0	0.00	29.914 
08:35	64.2	64.2	64.2	76	56.5	1	3	22	0.00	29.914 
08:40	64.3	64.3	64.3	75	56.2	1	5	90	0.00	29.914 
08:45	64.7	64.7	64.7	75	56.6	0	1	112	0.00	29.915 
08:50	64.8	64.8	64.8	74	56.3	1	3	112	0.00	29.915 
08:55	65.2	65.2	65.2	74	56.7	1	3	112	0.00	29.915 
09:00	65.6	65.6	65.6	71	55.9	2	5	112	0.00	29.913 
09:05	66.3	66.3	66.3	72	57.0	0	3	112	0.00	29.913 
09:10	67.1	67.1	67.1	68	56.2	1	4	112	0.00	29.913 
09:15	67.8	67.8	67.8	66	56.0	0	3	270	0.00	29.922 
09:20	68.4	68.4	68.4	64	55.7	1	3	112	0.00	29.922 
09:25	69.1	69.1	69.1	63	56.0	0	3	112	0.00	29.922 
09:30	69.6	69.6	69.6	60	55.1	1	4	112	0.00	29.922 
09:35	70.1	70.1	70.1	61	56.0	1	5	112	0.00	29.922 
09:40	70.1	70.1	70.1	58	54.6	1	3	112	0.00	29.922 
09:45	70.1	70.1	70.1	60	55.6	1	4	112	0.00	29.916 
09:50	70.3	70.3	70.3	59	55.3	0	3	112	0.00	29.916 
09:55	70.8	70.8	70.8	58	55.3	1	3	112	0.00	29.916 
10:00	71.3	71.3	71.3	58	55.7	0	2	112	0.00	29.920 
10:05	71.8	71.8	71.8	54	54.2	1	4	90	0.00	29.920 
10:10	72.0	72.0	72.0	55	54.9	1	3	90	0.00	29.920 
10:15	71.8	71.8	71.8	52	53.2	1	3	90	0.00	29.924 
10:20	71.8	71.8	71.8	52	53.2	1	3	0	0.00	29.924 
10:25	72.3	72.3	72.3	54	54.7	1	3	0	0.00	29.924 
10:30	72.7	72.7	72.7	54	55.1	2	6	90	0.00	29.925 
10:35	72.7	72.7	72.7	52	54.0	1	6	135	0.00	29.925 
10:40	73.0	73.0	73.0	54	55.4	1	4	112	0.00	29.925 
10:45	73.7	73.7	73.7	51	54.4	1	3	270	0.00	29.921 
10:50	72.7	72.7	72.7	51	53.5	1	2	315	0.00	29.921 
10:55	72.3	72.3	72.3	51	53.1	1	3	315	0.00	29.921 
11:00	72.5	72.5	72.5	50	52.8	1	2	315	0.00	29.923 
11:05	72.7	72.7	72.7	51	53.5	0	3	315	0.00	29.923 
11:10	72.8	72.8	72.8	50	53.1	0	2	315	0.00	29.923 
11:15	73.2	73.2	73.2	50	53.4	0	1	315	0.00	29.924 
11:20	73.5	73.5	73.5	51	54.2	1	3	292	0.00	29.924 
11:25	74.2	74.2	74.2	49	53.8	1	3	292	0.00	29.924 
11:30	74.6	74.6	74.6	47	53.0	1	4	270	0.00	29.922 
11:35	74.4	74.4	74.4	47	52.8	1	2	270	0.00	29.922 
11:40	74.0	74.0	74.0	48	53.0	1	3	270	0.00	29.922 
11:45	73.7	73.7	73.7	49	53.3	1	3	292	0.00	29.924 
11:50	74.2	74.2	74.2	49	53.8	1	3	292	0.00	29.924 
11:55	74.7	74.7	74.7	47	53.1	1	3	68	0.00	29.924 
12:00	74.2	74.2	74.2	46	52.1	0	2	45	0.00	29.924 
12:05	74.2	74.2	74.2	46	52.1	1	4	292	0.00	29.924 
12:10	74.4	74.4	74.4	48	53.4	1	2	292	0.00	29.924 
12:15	75.3	75.3	77.7	47	53.7	0	3	292	0.00	29.917 
12:20	75.4	75.4	77.7	44	52.0	2	4	270	0.00	29.917 
12:25	75.8	75.8	77.9	45	52.9	0	2	270	0.00	29.917 
12:30	75.6	75.6	77.8	44	52.1	1	4	292	0.00	29.913 
12:35	75.4	75.4	77.8	46	53.2	1	4	248	0.00	29.913 
12:40	76.0	76.0	78.0	46	53.7	0	2	270	0.00	29.913 
12:45	76.0	76.0	77.9	43	51.9	1	3	315	0.00	29.910 
12:50	75.8	75.8	77.8	43	51.7	1	4	270	0.00	29.910 
12:55	76.0	76.0	78.0	46	53.7	1	3	0	0.00	29.910 
13:00	76.0	76.0	78.0	46	53.7	1	2	270	0.00	29.914 
13:05	76.1	76.1	78.0	43	52.0	1	4	90	0.00	29.914 
13:10	76.1	76.1	78.0	43	52.0	1	4	292	0.00	29.914 
13:15	76.5	76.5	78.2	46	54.2	1	3	270	0.00	29.920 
13:20	77.2	77.2	78.5	43	52.9	1	4	315	0.00	29.920 
13:25	76.7	76.7	78.2	43	52.5	1	3	0	0.00	29.920 
13:30	76.8	76.8	78.3	43	52.6	1	2	0	0.00	29.919 
13:35	77.2	77.2	78.4	42	52.3	1	3	248	0.00	29.919 
13:40	77.4	77.4	78.5	42	52.5	1	4	292	0.00	29.919 
13:45	77.4	77.4	78.6	43	53.1	1	4	270	0.00	29.910 
13:50	77.4	77.4	78.4	40	51.2	1	4	315	0.00	29.910 
13:55	76.8	76.8	78.2	42	51.9	1	4	270	0.00	29.910 
14:00	77.0	77.0	78.2	39	50.1	1	4	270	0.00	29.911 
14:05	77.0	77.0	78.2	40	50.8	1	5	270	0.00	29.911 
14:10	77.0	77.0	78.4	43	52.8	1	4	112	0.00	29.911 
14:15	77.2	77.2	78.3	39	50.3	1	3	338	0.00	29.909 
14:20	77.6	77.6	78.6	42	52.7	0	2	338	0.00	29.909 
14:25	77.6	77.6	78.6	41	52.0	1	3	315	0.00	29.909 
14:30	77.4	77.4	78.4	40	51.2	1	3	315	0.00	29.907 
14:35	77.6	77.6	78.6	42	52.7	0	3	315	0.00	29.907 
14:40	77.9	77.9	78.7	41	52.3	1	6	270	0.00	29.907 
14:45	77.9	77.9	78.7	40	51.6	1	4	315	0.00	29.907 
14:50	77.6	77.6	78.5	39	50.7	1	3	270	0.00	29.907 
14:55	77.0	77.0	78.2	40	50.8	1	4	270	0.00	29.907 
15:00	76.7	76.7	78.1	39	49.9	1	3	270	0.00	29.908 
15:05	76.8	76.8	78.1	40	50.6	0	1	270	0.00	29.908 
15:10	77.0	77.0	78.3	41	51.5	0	3	112	0.00	29.908 
15:15	77.0	77.0	78.1	37	48.7	1	3	22	0.00	29.905 
15:20	76.8	76.8	78.0	38	49.2	1	3	292	0.00	29.905 
15:25	76.7	76.7	78.1	39	49.9	1	4	292	0.00	29.905 
15:30	76.8	76.8	78.0	38	49.2	1	3	292	0.00	29.909 
15:35	77.0	77.0	78.2	39	50.1	1	3	315	0.00	29.909 
15:40	77.0	77.0	78.2	39	50.1	1	2	315	0.00	29.909 
15:45	76.8	76.8	78.0	38	49.2	1	3	292	0.00	29.910 
15:50	76.8	76.8	78.0	37	48.5	1	3	292	0.00	29.910 
15:55	76.8	76.8	77.9	36	47.8	1	4	292	0.00	29.910 
16:00	76.7	76.7	78.0	38	49.2	1	4	22	0.00	29.911 
16:05	76.7	76.7	78.1	39	49.9	1	3	315	0.00	29.911 
16:10	76.8	76.8	78.0	38	49.2	0	2	315	0.00	29.911 
16:15	76.8	76.8	78.1	40	50.6	1	5	112	0.00	29.912 
16:20	76.7	76.7	78.1	39	49.9	1	2	315	0.00	29.912 
16:25	76.7	76.7	78.0	38	49.2	1	3	270	0.00	29.912 
16:30	76.5	76.5	77.9	37	48.3	1	4	270	0.00	29.914 
16:35	76.1	76.1	77.9	40	50.0	0	3	270	0.00	29.914 
16:40	76.0	76.0	77.8	39	49.2	0	2	292	0.00	29.914 
16:45	76.0	76.0	77.8	40	49.9	0	2	292	0.00	29.924 
16:50	76.0	76.0	77.8	39	49.2	0	3	292	0.00	29.924 
16:55	76.0	76.0	77.8	40	49.9	0	1	292	0.00	29.924 
17:00	76.0	76.0	77.8	40	49.9	1	4	68	0.00	29.923 
17:05	75.8	75.8	77.8	41	50.4	0	2	338	0.00	29.923 
17:10	75.6	75.6	77.7	42	50.9	0	1	338	0.00	29.923 
17:15	75.1	75.1	77.6	43	51.1	0	1	338	0.00	29.928 
17:20	74.6	74.6	74.6	44	51.2	0	1	338	0.00	29.928 
17:25	74.0	74.0	74.0	45	51.3	0	1	338	0.00	29.928 
17:30	73.9	73.9	73.9	45	51.2	0	1	338	0.00	29.927 
17:35	73.7	73.7	73.7	44	50.4	0	1	338	0.00	29.927 
17:40	73.5	73.5	73.5	44	50.2	0	1	338	0.00	29.927 
17:45	73.3	73.3	73.3	46	51.3	0	1	338	0.00	29.930 
17:50	73.3	73.3	73.3	45	50.7	0	1	338	0.00	29.930 
17:55	73.2	73.2	73.2	46	51.2	0	1	338	0.00	29.930 
18:00	73.2	73.2	73.2	46	51.2	0	1	338	0.00	29.931 
18:05	73.2	73.2	73.2	48	52.3	0	1	338	0.00	29.931 
18:10	73.0	73.0	73.0	47	51.6	0	1	338	0.00	29.931 
18:15	72.8	72.8	72.8	47	51.4	0	1	338	0.00	29.931 
18:20	72.7	72.7	72.7	49	52.4	0	1	338	0.00	29.931 
18:25	72.5	72.5	72.5	50	52.8	0	0	---	0.00	29.931 
18:30	72.3	72.3	72.3	50	52.6	0	1	338	0.00	29.930 
18:35	72.0	72.0	72.0	50	52.3	0	0	---	0.00	29.930 
18:40	71.6	71.6	71.6	51	52.5	0	0	---	0.00	29.930 
18:45	71.3	71.3	71.3	51	52.2	0	0	---	0.00	29.929 
18:50	70.9	70.9	70.9	52	52.4	0	0	---	0.00	29.929 
18:55	70.6	70.6	70.6	52	52.1	0	0	---	0.00	29.929 
19:00	70.3	70.3	70.3	53	52.3	0	0	---	0.00	29.925 
19:05	69.8	69.8	69.8	54	52.4	0	0	---	0.00	29.925 
19:10	69.4	69.4	69.4	54	52.0	0	0	---	0.00	29.925 
19:15	68.9	68.9	68.9	54	51.6	0	0	---	0.00	29.925 
19:20	68.6	68.6	68.6	55	51.8	0	0	---	0.00	29.925 
19:25	68.1	68.1	68.1	56	51.8	0	0	---	0.00	29.925 
19:30	67.8	67.8	67.8	58	52.5	0	0	---	0.00	29.929 
19:35	67.3	67.3	67.3	59	52.5	0	0	---	0.00	29.929 
19:40	66.8	66.8	66.8	61	52.9	0	0	---	0.00	29.929 
19:45	66.4	66.4	66.4	62	53.0	0	0	---	0.00	29.932 
19:50	66.0	66.0	66.0	63	53.0	0	0	---	0.00	29.932 
19:55	65.6	65.6	65.6	64	53.1	0	0	---	0.00	29.932 
20:00	65.3	65.3	65.3	65	53.2	0	0	---	0.00	29.938 
20:05	64.8	64.8	64.8	65	52.8	0	0	---	0.00	29.938 
20:10	64.5	64.5	64.5	66	52.9	0	0	---	0.00	29.938 
20:15	64.2	64.2	64.2	68	53.4	0	0	---	0.00	29.937 
20:20	63.9	63.9	63.9	68	53.1	0	0	---	0.00	29.937 
20:25	63.5	63.5	63.5	68	52.7	0	0	---	0.00	29.937 
20:30	63.2	63.2	63.2	69	52.9	0	0	---	0.00	29.936 
20:35	63.1	63.1	63.1	70	53.2	0	0	---	0.00	29.936 
20:40	62.7	62.7	62.7	71	53.2	0	0	---	0.00	29.936 
20:45	62.6	62.6	62.6	72	53.4	0	0	---	0.00	29.937 
20:50	62.6	62.6	62.6	72	53.4	0	0	---	0.00	29.937 
20:55	62.4	62.4	62.4	72	53.2	0	0	---	0.00	29.937 
21:00	62.4	62.4	62.4	72	53.2	0	0	---	0.00	29.941 
21:05	62.6	62.6	62.6	72	53.4	0	0	---	0.00	29.941 
21:10	62.6	62.6	62.6	72	53.4	0	0	---	0.00	29.941 
21:15	62.6	62.6	62.6	72	53.4	0	0	---	0.00	29.942 
21:20	62.6	62.6	62.6	72	53.4	0	0	---	0.00	29.942 
21:25	62.4	62.4	62.4	73	53.6	0	0	---	0.00	29.942 
21:30	62.3	62.3	62.3	73	53.5	0	0	---	0.00	29.945 
21:35	62.1	62.1	62.1	73	53.3	0	0	---	0.00	29.945 
21:40	62.0	62.0	62.0	74	53.6	0	0	---	0.00	29.945 
21:45	61.8	61.8	61.8	75	53.8	0	0	---	0.00	29.946 
21:50	61.6	61.6	61.6	75	53.6	0	0	---	0.00	29.946 
21:55	61.5	61.5	61.5	76	53.9	0	0	---	0.00	29.946 
22:00	61.2	61.2	61.2	77	53.9	0	0	---	0.00	29.948 
22:05	61.0	61.0	61.0	77	53.7	0	0	---	0.00	29.948 
22:10	60.9	60.9	60.9	78	54.0	0	0	---	0.00	29.948 
22:15	60.7	60.7	60.7	78	53.8	0	0	---	0.00	29.951 
22:20	60.5	60.5	60.5	79	54.0	0	0	---	0.00	29.951 
22:25	60.2	60.2	60.2	80	54.0	0	0	---	0.00	29.951 
22:30	60.1	60.1	60.1	80	53.9	0	0	---	0.00	29.954 
22:35	59.9	59.9	59.9	81	54.1	0	0	---	0.00	29.954 
22:40	59.8	59.8	59.8	81	54.0	0	0	---	0.00	29.954 
22:45	59.6	59.6	59.6	81	53.8	0	0	---	0.00	29.960 
22:50	59.5	59.5	59.5	82	54.0	0	0	---	0.00	29.960 
22:55	59.3	59.3	59.3	83	54.1	0	0	---	0.00	29.960 
23:00	59.2	59.2	59.2	84	54.4	0	0	---	0.00	29.953 
23:05	59.0	59.0	59.0	84	54.2	0	0	---	0.00	29.953 
23:10	59.0	59.0	59.0	85	54.5	0	0	---	0.00	29.953 
23:15	59.0	59.0	59.0	85	54.5	0	0	---	0.00	29.952 
23:20	59.2	59.2	59.2	85	54.7	0	0	---	0.00	29.952 
23:25	59.3	59.3	59.3	86	55.1	0	0	---	0.00	29.952 
23:30	59.3	59.3	59.3	86	55.1	0	0	---	0.00	29.952 
23:35	59.5	59.5	59.5	86	55.3	0	0	---	0.00	29.952 
23:40	59.6	59.6	59.6	85	55.1	0	0	---	0.00	29.952 
23:45	59.6	59.6	59.6	85	55.1	0	0	---	0.00	29.952 
23:50	59.8	59.8	59.8	85	55.3	0	0	---	0.00	29.952 
23:55	59.8	59.8	59.8	86	55.6	0	0	---	0.00	29.952 

CoCoRaHS
IN-AL-39
A2 Web Hosting
Creative Commons License
GoDaddy
Look for:

loaded 2017-10-17 09:08:17 • last modified 2010-11-18 10:43:29
Privacy PolicyDisclaimer
• wx.awcolley.com is powered by PmWiki v.2002016 •
• all content (unless otherwise noted) © 2017 A W Colley